Main page
METAR-TAF:

METAR-TAF

Airports :

Nanning Wuxu International Airport

Nanning, China

latitude: 22-49N, longitude: 108-21E, elevation: 73 m

Current weather observation

The report was made 1 hour and 6 minutes ago, at 13:00 UTC
Wind 2 kt from variable directions
Temperature 22°C
Humidity 83%
Pressure 1012 hPa
Visibility 10 km or more
Few clouds at a height of 1300 ft

METAR: ZGNN 291300Z VRB01MPS 9999 FEW013 22/19 Q1012 NOSIG

Time: 22:06 (14:06 UTC)

Forecast

The report was made 4 hours and 59 minutes ago, at 09:07 UTC
Forecast valid from 29 at 12 UTC to 01 at 12 UTC
Wind 6 kt from the South/Southeast
Visibility: 5000 m
Few clouds at a height of 1300 ft
Broken clouds at a height of 4000 ft
mist

TAF: ZGNN 290907Z 2912/0112 15003MPS 5000 BR FEW013 BKN040 TX25/0107Z TN19/2922Z

Weather observations and forecasts of more than 4000 airports (METAR and TAF reports).

The available stations are represented by yellow and red dots on the map.

Hover mouse over dot to see the name of the station.

Then click to see weather observations and forecasts.

To change the map : click on the green buttons with a black cross to zoom in, on the green button with a dash to zoom out, or on the green arrows for adjacent maps.


METAR-TAF: